createdAt,value
2017-07-21T00:01:51.093Z,10.80
2017-07-21T00:04:17.390Z,11.27
2017-07-21T00:06:43.667Z,11.90
2017-07-21T00:09:09.935Z,12.40
2017-07-21T00:11:36.205Z,12.00
2017-07-21T00:14:02.472Z,11.43
2017-07-21T00:16:28.749Z,11.43
2017-07-21T00:18:55.903Z,9.90
2017-07-21T00:21:22.933Z,10.60
2017-07-21T00:23:49.193Z,11.50
2017-07-21T00:26:15.489Z,13.47
2017-07-21T00:28:41.767Z,12.80
2017-07-21T00:31:08.048Z,12.37
2017-07-21T00:33:34.311Z,11.93
2017-07-21T00:36:00.572Z,13.10
2017-07-21T00:38:26.860Z,12.13
2017-07-21T00:40:53.874Z,13.20
2017-07-21T00:43:20.171Z,11.93
2017-07-21T00:45:46.477Z,12.50
2017-07-21T00:48:12.806Z,13.97
2017-07-21T00:50:39.073Z,14.07
2017-07-21T00:53:05.376Z,14.60
2017-07-21T00:55:31.644Z,14.63
2017-07-21T00:57:57.938Z,13.87
2017-07-21T01:00:24.230Z,14.30
2017-07-21T01:02:50.551Z,15.20
2017-07-21T01:05:18.671Z,14.27
2017-07-21T01:07:44.984Z,14.33
2017-07-21T01:10:11.319Z,15.43
2017-07-21T01:12:37.603Z,16.40
2017-07-21T01:15:03.886Z,14.27
2017-07-21T01:17:30.857Z,16.73
2017-07-21T01:19:57.241Z,16.97
2017-07-21T01:22:23.513Z,16.77
2017-07-21T01:24:50.617Z,18.10
2017-07-21T01:27:17.613Z,18.83
2017-07-21T01:29:43.896Z,18.53
2017-07-21T01:32:10.181Z,18.70
2017-07-21T01:34:36.456Z,19.73
2017-07-21T01:37:03.484Z,19.70
2017-07-21T01:39:30.935Z,21.33
2017-07-21T01:41:57.977Z,20.70
2017-07-21T01:44:25.004Z,21.90
2017-07-21T01:46:51.283Z,22.10
2017-07-21T01:49:17.575Z,23.03
2017-07-21T01:51:43.894Z,21.87
2017-07-21T01:54:10.155Z,21.47
2017-07-21T01:56:37.205Z,23.20
2017-07-21T01:59:04.227Z,24.50
2017-07-21T02:01:30.545Z,24.07
2017-07-21T02:03:56.872Z,23.07
2017-07-21T02:06:23.547Z,24.77
2017-07-21T02:08:49.889Z,25.03
2017-07-21T02:11:16.176Z,26.17
2017-07-21T02:13:42.433Z,23.33
2017-07-21T02:16:09.438Z,24.77
2017-07-21T02:18:36.522Z,24.80
2017-07-21T02:21:02.784Z,24.53
2017-07-21T02:23:29.063Z,26.33
2017-07-21T02:25:55.315Z,24.07
2017-07-21T02:28:21.574Z,23.27
2017-07-21T02:30:47.900Z,24.57
2017-07-21T02:33:14.203Z,27.20
2017-07-21T02:35:40.457Z,26.03
2017-07-21T02:38:06.711Z,25.93
2017-07-21T02:40:32.973Z,23.90
2017-07-21T02:42:59.245Z,25.93
2017-07-21T02:45:25.501Z,27.17
2017-07-21T02:47:51.773Z,26.20
2017-07-21T02:50:18.793Z,27.53
2017-07-21T02:52:45.049Z,25.73
2017-07-21T02:55:11.321Z,25.70
2017-07-21T02:57:37.604Z,25.90
2017-07-21T03:00:03.884Z,26.87
2017-07-21T03:02:30.185Z,25.40
2017-07-21T03:04:56.478Z,24.30
2017-07-21T03:07:22.764Z,24.37
2017-07-21T03:09:49.024Z,23.80
2017-07-21T03:12:15.271Z,22.47
2017-07-21T03:14:41.552Z,23.00
2017-07-21T03:17:07.824Z,22.93
2017-07-21T03:19:34.143Z,21.33
2017-07-21T03:22:00.436Z,21.97
2017-07-21T03:24:26.733Z,22.77
2017-07-21T03:26:53.057Z,24.30
2017-07-21T03:29:20.085Z,24.20
2017-07-21T03:31:46.362Z,23.33
2017-07-21T03:34:12.644Z,23.00
2017-07-21T03:36:39.007Z,23.67
2017-07-21T03:39:06.053Z,23.20
2017-07-21T03:41:33.086Z,21.80
2017-07-21T03:44:00.098Z,22.33
2017-07-21T03:46:26.393Z,28.67
2017-07-21T03:48:52.667Z,20.83
2017-07-21T03:51:18.952Z,21.60
2017-07-21T03:53:45.259Z,21.43
2017-07-21T03:56:11.681Z,22.80
2017-07-21T03:58:37.962Z,21.77
2017-07-21T04:01:04.267Z,21.80
2017-07-21T04:03:30.548Z,20.90
2017-07-21T04:05:56.861Z,22.70
2017-07-21T04:08:23.155Z,22.17
2017-07-21T04:10:49.429Z,23.03
2017-07-21T04:13:15.703Z,21.10
2017-07-21T04:15:41.977Z,22.40
2017-07-21T04:18:08.287Z,22.43
2017-07-21T04:20:34.566Z,20.47
2017-07-21T04:23:00.837Z,21.67
2017-07-21T04:25:27.133Z,20.23
2017-07-21T04:27:54.166Z,22.27
2017-07-21T04:30:20.468Z,21.07
2017-07-21T04:32:46.725Z,19.57
2017-07-21T04:35:13.019Z,20.00
2017-07-21T04:37:39.317Z,20.67
2017-07-21T04:40:05.589Z,18.77
2017-07-21T04:42:31.873Z,18.13
2017-07-21T04:44:58.153Z,17.23
2017-07-21T04:47:24.430Z,17.27
2017-07-21T04:49:50.725Z,16.57
2017-07-21T04:52:16.985Z,15.93
2017-07-21T04:54:44.029Z,16.13
2017-07-21T04:57:11.059Z,16.47
2017-07-21T04:59:38.099Z,15.53
2017-07-21T05:02:05.150Z,17.33
2017-07-21T05:04:31.445Z,15.43
2017-07-21T05:06:57.746Z,13.97
2017-07-21T05:09:24.022Z,13.30
2017-07-21T05:11:50.358Z,12.20
2017-07-21T05:14:16.645Z,15.00
2017-07-21T05:16:42.932Z,9.53
2017-07-21T05:19:10.279Z,10.53
2017-07-21T05:21:36.573Z,6.53
2017-07-21T05:24:02.847Z,7.97
2017-07-21T05:26:29.912Z,8.20
2017-07-21T05:28:56.198Z,7.80
2017-07-21T05:31:22.479Z,7.77
2017-07-21T05:33:49.489Z,7.53
2017-07-21T05:36:15.767Z,8.87
2017-07-21T05:38:42.034Z,6.93
2017-07-21T05:41:08.328Z,6.90
2017-07-21T05:43:34.625Z,7.60
2017-07-21T05:46:00.952Z,8.23
2017-07-21T05:48:27.291Z,8.80
2017-07-21T05:50:53.562Z,5.90
2017-07-21T05:53:19.851Z,7.77
2017-07-21T05:55:46.867Z,6.83
2017-07-21T05:58:13.153Z,6.07
2017-07-21T06:00:39.424Z,6.27
2017-07-21T06:03:06.483Z,5.20
2017-07-21T06:05:33.549Z,6.73
2017-07-21T06:08:00.598Z,8.20
2017-07-21T06:10:27.591Z,7.00
2017-07-21T06:12:53.877Z,5.97
2017-07-21T06:15:20.904Z,5.00
2017-07-21T06:17:47.184Z,4.23
2017-07-21T06:20:13.479Z,8.37
2017-07-21T06:22:39.772Z,4.30
2017-07-21T06:25:06.078Z,4.13
2017-07-21T06:27:32.363Z,2.83
2017-07-21T06:29:59.402Z,5.43
2017-07-21T06:32:25.679Z,4.03
2017-07-21T06:34:52.789Z,3.77
2017-07-21T06:37:19.061Z,6.17
2017-07-21T06:39:45.395Z,5.90
2017-07-21T06:42:11.668Z,3.33
2017-07-21T06:44:37.940Z,4.07
2017-07-21T06:47:04.250Z,7.13
2017-07-21T06:49:30.528Z,4.57
2017-07-21T06:51:56.848Z,5.57
2017-07-21T06:54:23.144Z,5.70
2017-07-21T06:56:49.421Z,4.70
2017-07-21T06:59:15.713Z,6.47
2017-07-21T07:01:42.015Z,4.83
2017-07-21T07:04:08.302Z,4.27
2017-07-21T07:06:34.581Z,4.20
2017-07-21T07:09:00.839Z,3.87
2017-07-21T07:11:27.141Z,4.57
2017-07-21T07:13:53.422Z,2.77
2017-07-21T07:16:19.715Z,4.87
2017-07-21T07:18:45.989Z,4.50
2017-07-21T07:21:12.275Z,4.87
2017-07-21T07:23:38.544Z,5.00
2017-07-21T07:26:04.813Z,3.60
2017-07-21T07:28:31.849Z,5.43
2017-07-21T07:30:58.139Z,2.80
2017-07-21T07:33:24.432Z,3.80
2017-07-21T07:35:50.709Z,4.73
2017-07-21T07:38:16.975Z,5.10
2017-07-21T07:40:43.245Z,4.90
2017-07-21T07:43:09.534Z,4.80
2017-07-21T07:45:35.854Z,6.67
2017-07-21T07:48:02.876Z,2.87
2017-07-21T07:50:29.149Z,3.93
2017-07-21T07:52:55.441Z,4.10
2017-07-21T07:55:22.487Z,3.77
2017-07-21T07:57:49.527Z,4.03
2017-07-21T08:00:15.825Z,4.37
2017-07-21T08:02:42.116Z,3.97
2017-07-21T08:05:08.418Z,4.83
2017-07-21T08:07:34.707Z,5.37
2017-07-21T08:10:01.070Z,5.53
2017-07-21T08:12:27.363Z,5.27
2017-07-21T08:14:53.656Z,3.53
2017-07-21T08:17:20.712Z,3.50
2017-07-21T08:19:47.746Z,5.50
2017-07-21T08:22:14.788Z,5.40
2017-07-21T08:24:41.087Z,3.70
2017-07-21T08:27:07.388Z,5.90
2017-07-21T08:29:33.732Z,4.30
2017-07-21T08:32:00.068Z,4.43
2017-07-21T08:34:27.148Z,5.13
2017-07-21T08:36:53.420Z,5.13
2017-07-21T08:39:19.708Z,4.07
2017-07-21T08:41:45.976Z,3.43
2017-07-21T08:44:12.348Z,5.17
2017-07-21T08:46:38.626Z,4.27
2017-07-21T08:49:04.928Z,5.60
2017-07-21T08:51:31.214Z,4.37
2017-07-21T08:53:57.487Z,4.07
2017-07-21T08:56:23.820Z,4.83
2017-07-21T08:58:50.906Z,3.40
2017-07-21T09:01:17.197Z,3.33
2017-07-21T09:03:43.484Z,3.83
2017-07-21T09:06:11.266Z,3.90
2017-07-21T09:08:37.555Z,3.07
2017-07-21T09:11:03.842Z,6.93
2017-07-21T09:13:30.133Z,6.60
2017-07-21T09:15:56.412Z,8.47
2017-07-21T09:18:23.323Z,5.67
2017-07-21T09:20:49.628Z,3.13
2017-07-21T09:23:15.920Z,3.93
2017-07-21T09:25:42.315Z,5.20
2017-07-21T09:28:08.793Z,5.10
2017-07-21T09:30:35.140Z,8.90
2017-07-21T09:33:01.426Z,4.37
2017-07-21T09:35:27.724Z,2.90
2017-07-21T09:37:54.140Z,4.60
2017-07-21T09:40:20.444Z,4.03
2017-07-21T09:42:47.473Z,3.43
2017-07-21T09:45:21.670Z,5.47
2017-07-21T09:47:48.193Z,4.53
2017-07-21T09:50:14.485Z,4.20
2017-07-21T09:52:40.780Z,3.47
2017-07-21T09:55:07.072Z,4.97
2017-07-21T09:57:33.391Z,5.00
2017-07-21T09:59:59.701Z,5.57
2017-07-21T10:02:25.967Z,5.97
2017-07-21T10:04:52.201Z,4.00
2017-07-21T10:07:18.528Z,4.90
2017-07-21T10:09:44.803Z,5.77
2017-07-21T10:12:11.112Z,3.50
2017-07-21T10:14:38.152Z,4.13
2017-07-21T10:17:04.450Z,4.90
2017-07-21T10:19:30.753Z,3.90
2017-07-21T10:21:57.089Z,5.03
2017-07-21T10:24:23.342Z,5.60
2017-07-21T10:26:49.630Z,4.27
2017-07-21T10:29:16.714Z,3.77
2017-07-21T10:31:43.035Z,3.20
2017-07-21T10:34:09.404Z,3.67
2017-07-21T10:36:35.737Z,4.27
2017-07-21T10:39:02.053Z,4.30
2017-07-21T10:41:28.340Z,5.10
2017-07-21T10:43:54.625Z,5.70
2017-07-21T10:46:20.921Z,5.10
2017-07-21T10:48:47.194Z,4.50
2017-07-21T10:51:13.493Z,3.73
2017-07-21T10:53:39.788Z,2.97
2017-07-21T10:56:06.072Z,4.97
2017-07-21T10:58:32.368Z,4.60
2017-07-21T11:00:58.644Z,4.10
2017-07-21T11:03:25.675Z,4.20
2017-07-21T11:05:51.976Z,3.40
2017-07-21T11:08:18.252Z,4.57
2017-07-21T11:10:44.593Z,3.80
2017-07-21T11:13:11.633Z,3.83
2017-07-21T11:15:38.769Z,3.73
2017-07-21T11:18:05.046Z,3.10
2017-07-21T11:20:31.399Z,3.30
2017-07-21T11:22:57.705Z,3.90
2017-07-21T11:25:23.985Z,3.70
2017-07-21T11:27:50.260Z,4.00
2017-07-21T11:30:16.557Z,3.00
2017-07-21T11:32:42.828Z,3.93
2017-07-21T11:35:09.097Z,3.13
2017-07-21T11:37:35.382Z,2.30
2017-07-21T11:40:01.667Z,5.63
2017-07-21T11:42:27.967Z,2.17
2017-07-21T11:44:54.264Z,4.97
2017-07-21T11:47:20.558Z,3.97
2017-07-21T11:49:46.813Z,3.00
2017-07-21T11:52:13.113Z,3.30
2017-07-21T11:54:39.379Z,2.60
2017-07-21T11:57:05.672Z,4.83
2017-07-21T11:59:31.963Z,3.13
2017-07-21T12:01:58.221Z,2.67
2017-07-21T12:04:24.534Z,2.70
2017-07-21T12:06:50.819Z,4.10
2017-07-21T12:09:17.148Z,2.93
2017-07-21T12:11:45.147Z,3.30
2017-07-21T12:14:13.064Z,3.70
2017-07-21T12:16:41.009Z,6.10
2017-07-21T12:19:09.697Z,1.73
2017-07-21T12:21:37.340Z,3.17
2017-07-21T12:24:05.521Z,5.90
2017-07-21T12:26:33.536Z,2.30
2017-07-21T12:29:00.114Z,3.07
2017-07-21T12:31:26.467Z,2.67
2017-07-21T12:33:52.835Z,2.53
2017-07-21T12:36:20.567Z,3.30
2017-07-21T12:38:49.188Z,3.70
2017-07-21T12:41:17.619Z,3.50
2017-07-21T12:43:45.923Z,3.00
2017-07-21T12:46:14.356Z,3.13
2017-07-21T12:48:43.400Z,4.27
2017-07-21T12:51:11.147Z,4.40
2017-07-21T12:53:37.426Z,2.33
2017-07-21T12:56:03.691Z,4.00
2017-07-21T12:58:30.004Z,3.03
2017-07-21T13:00:56.331Z,2.23
2017-07-21T13:03:22.610Z,2.30
2017-07-21T13:05:48.897Z,2.50
2017-07-21T13:08:15.212Z,4.77
2017-07-21T13:10:41.486Z,4.00
2017-07-21T13:13:07.817Z,1.90
2017-07-21T13:15:34.148Z,2.20
2017-07-21T13:18:00.445Z,3.33
2017-07-21T13:20:26.789Z,3.50
2017-07-21T13:22:53.089Z,3.20
2017-07-21T13:25:19.360Z,2.40
2017-07-21T13:27:45.678Z,3.37
2017-07-21T13:30:11.980Z,2.33
2017-07-21T13:32:38.303Z,1.97
2017-07-21T13:35:04.600Z,1.70
2017-07-21T13:37:31.618Z,2.67
2017-07-21T13:39:57.932Z,3.13
2017-07-21T13:42:24.236Z,1.63
2017-07-21T13:44:50.503Z,4.80
2017-07-21T13:47:16.800Z,3.67
2017-07-21T13:49:43.073Z,2.93
2017-07-21T13:52:09.403Z,2.43
2017-07-21T13:54:35.712Z,3.00
2017-07-21T13:57:01.988Z,4.63
2017-07-21T13:59:28.271Z,3.37
2017-07-21T14:01:54.553Z,1.90
2017-07-21T14:04:21.582Z,2.27
2017-07-21T14:06:47.878Z,3.20
2017-07-21T14:09:14.134Z,2.70
2017-07-21T14:11:40.463Z,3.23
2017-07-21T14:14:06.754Z,2.10
2017-07-21T14:16:33.052Z,3.87
2017-07-21T14:19:00.240Z,3.70
2017-07-21T14:21:26.519Z,2.40
2017-07-21T14:23:52.810Z,1.63
2017-07-21T14:26:19.088Z,2.60
2017-07-21T14:28:45.371Z,3.57
2017-07-21T14:31:11.662Z,3.17
2017-07-21T14:33:37.941Z,3.10
2017-07-21T14:36:04.215Z,2.23
2017-07-21T14:38:30.497Z,2.03
2017-07-21T14:40:56.778Z,3.73
2017-07-21T14:43:23.071Z,3.80
2017-07-21T14:45:49.337Z,2.17
2017-07-21T14:48:15.641Z,3.73
2017-07-21T14:50:42.679Z,3.60
2017-07-21T14:53:08.982Z,3.00
2017-07-21T14:55:35.253Z,2.80
2017-07-21T14:58:02.294Z,2.03
2017-07-21T15:00:29.328Z,3.10
2017-07-21T15:02:55.660Z,2.60
2017-07-21T15:05:21.934Z,3.47
2017-07-21T15:07:48.241Z,2.97
2017-07-21T15:10:14.549Z,3.60
2017-07-21T15:12:40.824Z,4.17
2017-07-21T15:15:07.120Z,2.30
2017-07-21T15:17:33.411Z,3.90
2017-07-21T15:19:59.724Z,3.47
2017-07-21T15:22:26.012Z,2.00
2017-07-21T15:24:52.315Z,2.13
2017-07-21T15:27:18.593Z,2.50
2017-07-21T15:29:44.948Z,1.63
2017-07-21T15:32:11.233Z,4.00
2017-07-21T15:34:38.259Z,4.10
2017-07-21T15:37:04.614Z,1.73
2017-07-21T15:39:30.889Z,1.70
2017-07-21T15:41:57.176Z,2.43
2017-07-21T15:44:23.479Z,2.70
2017-07-21T15:46:49.772Z,3.30
2017-07-21T15:49:16.053Z,3.20
2017-07-21T15:51:43.126Z,2.90
2017-07-21T15:54:09.406Z,1.90
2017-07-21T15:56:35.711Z,2.27
2017-07-21T15:59:02.015Z,3.17
2017-07-21T16:01:28.329Z,1.53
2017-07-21T16:03:54.632Z,1.73
2017-07-21T16:06:20.921Z,2.80
2017-07-21T16:08:47.266Z,2.70
2017-07-21T16:11:13.567Z,2.13
2017-07-21T16:13:39.908Z,2.30
2017-07-21T16:16:06.180Z,1.77
2017-07-21T16:18:32.512Z,1.80
2017-07-21T16:20:59.549Z,3.37
2017-07-21T16:23:25.864Z,2.17
2017-07-21T16:25:52.159Z,2.17
2017-07-21T16:28:18.438Z,2.67
2017-07-21T16:30:44.723Z,2.50
2017-07-21T16:33:11.081Z,2.23
2017-07-21T16:35:37.391Z,1.73
2017-07-21T16:38:03.677Z,2.83
2017-07-21T16:40:30.712Z,2.90
2017-07-21T16:42:57.020Z,3.53
2017-07-21T16:45:23.332Z,2.20
2017-07-21T16:47:49.636Z,2.43
2017-07-21T16:50:15.915Z,2.27
2017-07-21T16:52:42.207Z,1.50
2017-07-21T16:55:08.556Z,1.70
2017-07-21T16:57:34.926Z,1.70
2017-07-21T17:00:01.215Z,2.00
2017-07-21T17:02:27.511Z,2.13
2017-07-21T17:04:53.784Z,2.97
2017-07-21T17:07:20.094Z,2.33
2017-07-21T17:09:46.369Z,1.87
2017-07-21T17:12:12.660Z,2.33
2017-07-21T17:14:38.936Z,2.60
2017-07-21T17:17:06.027Z,1.83
2017-07-21T17:19:32.312Z,2.63
2017-07-21T17:21:59.359Z,1.33
2017-07-21T17:24:26.446Z,1.97
2017-07-21T17:26:52.803Z,2.80
2017-07-21T17:29:19.860Z,3.70
2017-07-21T17:31:46.815Z,3.20
2017-07-21T17:34:13.102Z,2.03
2017-07-21T17:36:39.375Z,2.87
2017-07-21T17:39:05.668Z,3.40
2017-07-21T17:41:31.980Z,3.60
2017-07-21T17:43:59.214Z,2.67
2017-07-21T17:46:26.262Z,1.70
2017-07-21T17:48:52.564Z,3.30
2017-07-21T17:51:18.827Z,2.00
2017-07-21T17:53:45.094Z,1.57
2017-07-21T17:56:11.441Z,2.17
2017-07-21T17:58:38.542Z,2.80
2017-07-21T18:01:04.886Z,1.80
2017-07-21T18:03:31.208Z,2.23
2017-07-21T18:05:57.495Z,2.47
2017-07-21T18:08:23.799Z,1.83
2017-07-21T18:10:50.156Z,1.93
2017-07-21T18:13:16.491Z,3.80
2017-07-21T18:15:43.544Z,2.20
2017-07-21T18:18:09.859Z,1.83
2017-07-21T18:20:36.152Z,1.77
2017-07-21T18:23:02.411Z,3.10
2017-07-21T18:25:29.339Z,2.20
2017-07-21T18:27:55.631Z,2.70
2017-07-21T18:30:21.918Z,1.60
2017-07-21T18:32:48.214Z,2.17
2017-07-21T18:35:14.560Z,2.53
2017-07-21T18:37:41.410Z,2.90
2017-07-21T18:40:08.489Z,3.03
2017-07-21T18:42:34.830Z,2.93
2017-07-21T18:45:01.341Z,2.27
2017-07-21T18:47:28.616Z,2.90
2017-07-21T18:49:54.908Z,2.13
2017-07-21T18:52:21.191Z,3.13
2017-07-21T18:54:47.499Z,3.30
2017-07-21T18:57:13.789Z,4.10
2017-07-21T18:59:40.877Z,3.77
2017-07-21T19:02:07.153Z,2.83
2017-07-21T19:04:33.500Z,3.07
2017-07-21T19:06:59.846Z,1.50
2017-07-21T19:09:26.265Z,2.73
2017-07-21T19:11:52.568Z,2.43
2017-07-21T19:14:18.900Z,2.53
2017-07-21T19:16:45.197Z,3.03
2017-07-21T19:19:11.520Z,2.70
2017-07-21T19:21:37.811Z,3.30
2017-07-21T19:24:04.182Z,3.93
2017-07-21T19:26:30.466Z,3.27
2017-07-21T19:28:56.775Z,4.47
2017-07-21T19:31:23.050Z,4.23
2017-07-21T19:33:49.337Z,5.33
2017-07-21T19:36:16.526Z,4.10
2017-07-21T19:38:42.871Z,3.53
2017-07-21T19:41:09.183Z,3.00
2017-07-21T19:43:35.383Z,4.30
2017-07-21T19:46:01.698Z,4.97
2017-07-21T19:48:27.973Z,4.07
2017-07-21T19:50:54.247Z,1.93
2017-07-21T19:53:20.586Z,4.30
2017-07-21T19:55:46.867Z,4.10
2017-07-21T19:58:13.138Z,4.40
2017-07-21T20:00:39.422Z,3.80
2017-07-21T20:03:05.722Z,3.83
2017-07-21T20:05:32.028Z,2.63
2017-07-21T20:08:05.428Z,3.10
2017-07-21T20:10:31.762Z,3.37
2017-07-21T20:12:58.035Z,3.33
2017-07-21T20:15:24.295Z,3.03
2017-07-21T20:17:50.642Z,4.97
2017-07-21T20:20:16.900Z,6.17
2017-07-21T20:22:43.171Z,5.63
2017-07-21T20:25:09.441Z,7.73
2017-07-21T20:27:35.720Z,5.10
2017-07-21T20:30:02.695Z,5.90
2017-07-21T20:32:28.984Z,5.23
2017-07-21T20:34:55.243Z,4.07
2017-07-21T20:37:21.486Z,3.00
2017-07-21T20:39:47.744Z,4.93
2017-07-21T20:42:13.999Z,5.90
2017-07-21T20:44:40.291Z,3.97
2017-07-21T20:47:06.556Z,4.90
2017-07-21T20:49:32.861Z,2.67
2017-07-21T20:51:59.133Z,5.67
2017-07-21T20:54:26.142Z,3.10
2017-07-21T20:56:52.416Z,4.50
2017-07-21T20:59:19.464Z,5.30
2017-07-21T21:01:46.537Z,7.57
2017-07-21T21:04:12.806Z,2.30
2017-07-21T21:06:39.076Z,3.07
2017-07-21T21:09:06.108Z,3.33
2017-07-21T21:11:33.135Z,4.10
2017-07-21T21:13:59.427Z,6.73
2017-07-21T21:16:25.674Z,4.13
2017-07-21T21:18:51.937Z,5.30
2017-07-21T21:21:18.218Z,4.87
2017-07-21T21:23:44.475Z,4.37
2017-07-21T21:26:10.778Z,4.00
2017-07-21T21:28:37.054Z,4.80
2017-07-21T21:31:03.363Z,5.30
2017-07-21T21:33:30.530Z,5.00
2017-07-21T21:35:56.793Z,5.43
2017-07-21T21:38:23.079Z,8.70
2017-07-21T21:40:49.387Z,4.30
2017-07-21T21:43:15.673Z,3.93
2017-07-21T21:45:41.965Z,4.20
2017-07-21T21:48:08.686Z,2.70
2017-07-21T21:50:34.952Z,3.77
2017-07-21T21:53:01.265Z,3.90
2017-07-21T21:55:27.554Z,3.33
2017-07-21T21:57:53.845Z,3.80
2017-07-21T22:00:20.945Z,4.30
2017-07-21T22:02:47.308Z,4.13
2017-07-21T22:05:14.635Z,4.60
2017-07-21T22:07:48.136Z,6.20
2017-07-21T22:10:14.525Z,7.97
2017-07-21T22:12:40.810Z,8.47
2017-07-21T22:15:19.596Z,4.80
2017-07-21T22:17:45.889Z,4.53
2017-07-21T22:20:12.195Z,2.70
2017-07-21T22:22:38.478Z,4.60
2017-07-21T22:25:04.792Z,3.73
2017-07-21T22:27:31.119Z,3.63
2017-07-21T22:29:57.441Z,4.40
2017-07-21T22:32:24.448Z,2.70
2017-07-21T22:34:50.752Z,5.00
2017-07-21T22:37:17.051Z,5.10
2017-07-21T22:39:43.368Z,4.60
2017-07-21T22:42:10.827Z,5.23
2017-07-21T22:44:37.118Z,2.40
2017-07-21T22:47:03.381Z,6.10
2017-07-21T22:49:30.175Z,3.80
2017-07-21T22:51:56.469Z,3.43
2017-07-21T22:54:22.745Z,2.47
2017-07-21T22:56:49.013Z,4.60
2017-07-21T22:59:16.022Z,3.30
2017-07-21T23:01:42.306Z,2.10
2017-07-21T23:04:08.585Z,3.77
2017-07-21T23:06:34.868Z,2.70
2017-07-21T23:09:01.149Z,4.80
2017-07-21T23:11:27.456Z,3.60
2017-07-21T23:13:53.730Z,3.97
2017-07-21T23:16:19.993Z,3.83
2017-07-21T23:18:46.265Z,3.53
2017-07-21T23:21:12.524Z,2.53
2017-07-21T23:23:39.530Z,3.40
2017-07-21T23:26:05.800Z,3.00
2017-07-21T23:28:32.068Z,3.67
2017-07-21T23:30:58.331Z,4.10
2017-07-21T23:33:24.625Z,2.60
2017-07-21T23:35:50.880Z,3.40
2017-07-21T23:38:17.181Z,4.60
2017-07-21T23:40:43.441Z,3.20
2017-07-21T23:43:09.709Z,2.53
2017-07-21T23:45:36.712Z,3.00
2017-07-21T23:48:02.993Z,4.07
2017-07-21T23:50:29.263Z,4.03
2017-07-21T23:52:55.509Z,3.63
2017-07-21T23:55:21.780Z,3.53
2017-07-21T23:57:48.028Z,3.13
